Hovedside
METAR-TAF:

METAR-TAF

Lufthavner :

Malmö lufthavn

Malmö, Sverige

breddegrad: 55-33N, lengdegrad: 013-22E, høyde over havet: 106 m

Gjeldene værobservasjon

Denne rapporten ble laget for 42 minutter siden, klokken 04:20 UTC
Vind 9 kt fra Øst
Temperatur 11°C
Luftfuktighet 82%
Trykk 1009 hPa
Sikt 10 km eller mer
ingen skyer under 1500 m og ingen bygeskyer

METAR: ESMS 250420Z 10009KT CAVOK 11/08 Q1009

Tid: 07:02 (05:02 UTC)

Varsel

Denne rapporten ble laget for 5 timer og 48 minutter siden, klokken 23:14 UTC
Varsel gyldig fra 25. klokken 00 UTC til 25. klokken 24 UTC
Vind 10 kt fra Øst-sørøst
Sikt 10 km eller mer
ingen skyer under 1500 m og ingen bygeskyer

TAF: ESMS 242314Z 2500/2524 11010KT CAVOK

Værobservasjoner og værvarsel for over 4000 flyplasser (METAR- og TAF-rapporter).

Tilgjengelige stasjoner er representert av de røde og gule prikkene på kartet.

Hold musepekeren over prikken for å se navnet på stasjonen.

Klikk så for å se værobservasjoner og -varsler.

For å forandre kartet kan du klikke på den grønne knappen med svart kryss for å zoome inn, på den grønne knappen med strek for å zoome ut, eller på de grønne pilene for å se tilstøtende kart.


METAR-TAF: